Time;durP1;ratioP1;P1;durP2;ratioP2;P2;SDS_P1;SDS_P2;PMS_P1;PMS_P2;Temp;Humidity;BMP_temperature;BMP_pressure;BME280_temperature;BME280_humidity;BME280_pressure;Samples;Min_cycle;Max_cycle;Signal;HPM_P1;HPM_P2
2024/02/25 00:02:26;;;;;;;5.43;2.63;;;8.20;99.90;;;;;;10133332;28;20128;-68
2024/02/25 00:07:16;;;;;;;4.00;2.25;;;8.20;99.90;;;;;;10105958;28;20033;-69
2024/02/25 00:12:07;;;;;;;2.67;1.88;;;8.20;99.90;;;;;;10110459;28;20039;-71
2024/02/25 00:16:58;;;;;;;2.25;1.75;;;8.10;99.90;;;;;;10112561;28;20401;-70
2024/02/25 00:21:48;;;;;;;3.72;2.65;;;8.10;99.90;;;;;;10112247;28;20052;-72
2024/02/25 00:26:39;;;;;;;3.45;2.10;;;8.10;99.90;;;;;;10123143;28;20183;-70
2024/02/25 00:31:30;;;;;;;4.97;2.63;;;8.10;99.90;;;;;;10108437;28;20024;-69
2024/02/25 00:36:20;;;;;;;3.85;2.08;;;8.00;99.90;;;;;;10109808;28;20096;-71
2024/02/25 00:41:11;;;;;;;6.18;3.75;;;8.00;99.90;;;;;;10103481;28;20072;-68
2024/02/25 00:46:02;;;;;;;5.05;2.97;;;8.00;99.90;;;;;;10102789;28;20462;-71
2024/02/25 00:50:52;;;;;;;4.63;2.90;;;7.90;99.90;;;;;;10103890;28;20039;-69
2024/02/25 00:55:43;;;;;;;3.05;2.20;;;7.90;99.90;;;;;;10115492;28;20052;-70
2024/02/25 01:00:33;;;;;;;5.15;2.40;;;7.90;99.90;;;;;;10112016;28;20113;-69
2024/02/25 01:05:25;;;;;;;3.45;1.90;;;7.80;99.90;;;;;;10112017;28;20032;-70
2024/02/25 01:10:16;;;;;;;3.20;2.28;;;7.80;99.90;;;;;;10109965;28;20442;-69
2024/02/25 01:15:07;;;;;;;3.80;2.33;;;7.80;99.90;;;;;;10092218;28;20025;-70
2024/02/25 01:19:58;;;;;;;3.60;2.67;;;7.70;99.90;;;;;;10100415;28;20025;-70
2024/02/25 01:24:48;;;;;;;3.30;2.38;;;7.70;99.90;;;;;;10124787;28;20032;-70
2024/02/25 01:29:39;;;;;;;2.60;1.98;;;7.70;99.90;;;;;;10104585;28;20017;-71
2024/02/25 01:34:29;;;;;;;2.88;2.00;;;7.60;99.90;;;;;;10103564;28;20029;-72
2024/02/25 01:39:22;;;;;;;4.32;2.67;;;7.60;99.90;;;;;;10101368;28;20056;-73
2024/02/25 01:44:13;;;;;;;2.80;1.95;;;7.60;99.90;;;;;;10100342;28;20517;-70
2024/02/25 01:49:04;;;;;;;2.67;1.80;;;7.60;99.90;;;;;;10104514;28;20044;-71
2024/02/25 01:53:55;;;;;;;4.07;2.30;;;7.60;99.90;;;;;;10112999;28;20105;-70
2024/02/25 01:58:47;;;;;;;2.53;1.80;;;7.60;99.90;;;;;;10111026;28;20021;-70
2024/02/25 02:03:37;;;;;;;4.50;2.20;;;7.60;99.90;;;;;;10111710;28;20258;-68
2024/02/25 02:08:29;;;;;;;2.95;2.05;;;7.60;99.90;;;;;;10114947;28;20017;-70
2024/02/25 02:13:19;;;;;;;3.28;2.17;;;7.60;99.90;;;;;;10093149;28;20145;-70
2024/02/25 02:18:12;;;;;;;3.78;2.13;;;7.50;99.90;;;;;;10112214;28;20028;-69
2024/02/25 02:23:02;;;;;;;4.65;2.10;;;7.40;99.90;;;;;;10123598;28;20322;-70
2024/02/25 02:27:53;;;;;;;4.15;2.55;;;7.50;99.90;;;;;;10108617;28;20037;-72
2024/02/25 02:32:44;;;;;;;3.78;2.33;;;7.50;99.90;;;;;;10109727;28;20362;-71
2024/02/25 02:37:34;;;;;;;4.88;2.60;;;7.50;99.90;;;;;;10100871;28;20045;-69
2024/02/25 02:42:25;;;;;;;5.90;2.95;;;7.40;99.90;;;;;;10120347;28;20128;-70
2024/02/25 02:47:18;;;;;;;3.80;2.00;;;7.50;99.90;;;;;;10122331;28;20121;-71
2024/02/25 02:52:08;;;;;;;4.10;2.08;;;7.40;99.90;;;;;;10111329;28;20056;-70
2024/02/25 02:56:59;;;;;;;3.08;2.58;;;7.40;99.90;;;;;;10096125;28;20037;-71
2024/02/25 03:01:51;;;;;;;4.80;1.75;;;7.40;99.90;;;;;;10112326;28;20037;-72
2024/02/25 03:06:41;;;;;;;3.45;2.10;;;7.40;99.90;;;;;;10086426;28;20025;-70
2024/02/25 03:11:32;;;;;;;3.95;2.05;;;7.40;99.90;;;;;;10103119;28;20033;-71
2024/02/25 03:16:22;;;;;;;2.95;2.10;;;7.40;99.90;;;;;;10104653;28;20186;-70
2024/02/25 03:21:13;;;;;;;3.72;1.75;;;7.50;99.90;;;;;;10106665;28;20048;-71
2024/02/25 03:26:04;;;;;;;2.67;2.40;;;7.30;99.90;;;;;;10093404;28;20041;-71
2024/02/25 03:30:55;;;;;;;3.00;1.80;;;7.40;99.90;;;;;;10103080;28;20183;-68
2024/02/25 03:35:46;;;;;;;3.55;1.55;;;7.40;99.90;;;;;;10094892;28;20609;-66
2024/02/25 03:40:36;;;;;;;2.38;1.83;;;7.40;99.90;;;;;;10100964;28;20040;-66
2024/02/25 03:45:27;;;;;;;3.33;2.03;;;7.40;99.90;;;;;;10102652;28;20467;-66
2024/02/25 03:50:18;;;;;;;2.38;1.70;;;7.40;99.90;;;;;;10112485;28;20430;-66
2024/02/25 03:55:08;;;;;;;2.13;1.40;;;7.40;99.90;;;;;;10100326;28;20037;-66
2024/02/25 03:59:59;;;;;;;4.03;1.65;;;7.30;99.90;;;;;;10096944;28;20594;-66
2024/02/25 04:04:50;;;;;;;2.88;1.75;;;7.30;99.90;;;;;;10103530;28;20060;-66
2024/02/25 04:09:41;;;;;;;4.22;1.83;;;7.30;99.90;;;;;;10114959;28;20482;-67
2024/02/25 04:14:31;;;;;;;3.20;1.80;;;7.30;99.90;;;;;;10099722;28;20031;-67
2024/02/25 04:19:22;;;;;;;3.80;2.75;;;7.30;99.90;;;;;;10105284;28;20031;-67
2024/02/25 04:24:13;;;;;;;1.85;1.67;;;7.20;99.90;;;;;;10106948;28;20032;-67
2024/02/25 04:29:03;;;;;;;3.25;1.80;;;7.20;99.90;;;;;;10098062;28;20052;-67
2024/02/25 04:33:54;;;;;;;3.35;2.05;;;7.20;99.90;;;;;;10099783;28;20625;-67
2024/02/25 04:38:46;;;;;;;1.48;1.33;;;7.30;99.90;;;;;;10098754;28;20105;-67
2024/02/25 04:43:36;;;;;;;2.92;2.00;;;7.30;99.90;;;;;;10085487;28;20051;-67
2024/02/25 04:48:27;;;;;;;1.95;1.55;;;7.20;99.90;;;;;;10102409;28;20037;-66
2024/02/25 04:53:18;;;;;;;3.90;1.92;;;7.20;99.90;;;;;;10097923;28;20033;-68
2024/02/25 04:58:09;;;;;;;1.77;1.50;;;7.30;99.90;;;;;;10098168;28;20171;-66
2024/02/25 05:03:01;;;;;;;1.73;1.13;;;7.30;99.90;;;;;;10096887;28;20490;-66
2024/02/25 05:07:52;;;;;;;2.35;1.35;;;7.20;99.90;;;;;;10098755;28;20021;-66
2024/02/25 05:12:43;;;;;;;3.25;1.45;;;7.20;99.90;;;;;;10098879;28;20043;-66
2024/02/25 05:17:33;;;;;;;1.45;1.05;;;7.20;99.90;;;;;;10103375;28;20032;-66
2024/02/25 05:22:24;;;;;;;3.22;1.52;;;7.30;99.90;;;;;;10123049;28;20037;-65
2024/02/25 05:27:15;;;;;;;2.05;1.42;;;7.20;99.90;;;;;;10097261;28;20041;-65
2024/02/25 05:32:06;;;;;;;2.22;1.20;;;7.20;99.90;;;;;;10097193;28;20379;-66
2024/02/25 05:36:57;;;;;;;1.48;1.10;;;7.20;99.90;;;;;;10096608;28;20108;-68
2024/02/25 05:41:47;;;;;;;2.63;1.17;;;7.20;99.90;;;;;;10099292;28;20656;-67
2024/02/25 05:46:38;;;;;;;1.85;1.40;;;7.20;99.90;;;;;;10096426;28;20060;-66
2024/02/25 05:51:29;;;;;;;1.70;1.35;;;7.30;99.90;;;;;;10095809;28;20063;-66
2024/02/25 05:56:19;;;;;;;2.83;1.80;;;7.20;99.90;;;;;;10097195;28;20394;-65
2024/02/25 06:01:10;;;;;;;2.22;1.10;;;7.10;99.90;;;;;;10115623;28;20037;-68
2024/02/25 06:06:01;;;;;;;2.75;1.75;;;7.10;99.90;;;;;;10112848;28;20186;-67
2024/02/25 06:10:52;;;;;;;2.13;1.40;;;7.10;99.90;;;;;;10095507;28;20033;-66
2024/02/25 06:15:43;;;;;;;1.83;1.33;;;7.10;99.90;;;;;;10095562;28;20068;-65
2024/02/25 06:20:34;;;;;;;1.65;1.00;;;7.10;99.90;;;;;;10098602;28;20083;-66
2024/02/25 06:25:24;;;;;;;1.63;1.25;;;7.00;99.90;;;;;;10100329;28;20067;-66
2024/02/25 06:30:15;;;;;;;1.48;0.90;;;7.00;99.90;;;;;;10103180;28;20116;-66
2024/02/25 06:35:06;;;;;;;2.22;0.98;;;7.10;99.90;;;;;;10081978;28;20020;-66
2024/02/25 06:39:57;;;;;;;2.45;1.23;;;7.10;99.90;;;;;;10095506;28;20474;-65
2024/02/25 06:44:48;;;;;;;1.52;0.95;;;7.10;99.90;;;;;;10094372;28;20465;-67
2024/02/25 06:49:42;;;;;;;0.75;0.75;;;7.10;99.90;;;;;;10094735;28;20028;-66
2024/02/25 06:54:33;;;;;;;1.52;1.17;;;7.20;99.90;;;;;;10105908;28;20039;-65
2024/02/25 06:59:23;;;;;;;0.70;0.50;;;7.10;99.90;;;;;;10094809;28;20108;-67
2024/02/25 07:04:14;;;;;;;1.10;0.80;;;7.20;99.90;;;;;;10093725;28;20033;-67
2024/02/25 07:09:05;;;;;;;2.05;0.93;;;7.20;99.90;;;;;;10094621;28;20036;-64
2024/02/25 07:13:56;;;;;;;1.77;0.93;;;7.20;99.90;;;;;;10094947;28;20037;-65
2024/02/25 07:18:46;;;;;;;1.30;0.73;;;7.30;99.90;;;;;;10104636;28;20021;-66
2024/02/25 07:23:41;;;;;;;1.15;0.60;;;7.30;99.90;;;;;;10109022;28;20422;-67
2024/02/25 07:28:32;;;;;;;1.87;0.70;;;7.30;99.90;;;;;;10103732;28;20036;-66
2024/02/25 07:33:22;;;;;;;1.55;0.85;;;7.40;99.90;;;;;;10106023;28;20045;-67
2024/02/25 07:38:13;;;;;;;1.73;0.73;;;7.40;99.90;;;;;;10083437;28;20069;-66
2024/02/25 07:43:04;;;;;;;3.00;0.90;;;7.40;99.90;;;;;;10100980;28;20118;-66
2024/02/25 07:47:54;;;;;;;0.90;0.50;;;7.50;99.90;;;;;;10100868;28;20027;-68
2024/02/25 07:52:45;;;;;;;1.17;0.52;;;7.50;99.90;;;;;;10105689;28;20112;-67
2024/02/25 07:57:36;;;;;;;0.60;0.50;;;7.50;99.90;;;;;;10100611;28;20020;-67
2024/02/25 08:02:26;;;;;;;0.70;0.60;;;7.50;99.90;;;;;;10100137;28;20037;-66
2024/02/25 08:07:17;;;;;;;1.08;0.70;;;7.60;99.90;;;;;;10100151;28;20025;-66
2024/02/25 08:12:08;;;;;;;2.00;0.73;;;7.60;99.90;;;;;;10100014;28;20059;-65
2024/02/25 08:16:58;;;;;;;0.40;0.40;;;7.80;99.90;;;;;;10110363;28;20082;-67
2024/02/25 08:21:49;;;;;;;1.40;0.47;;;7.80;99.90;;;;;;10100098;28;20414;-66
2024/02/25 08:26:40;;;;;;;2.40;0.65;;;7.80;99.90;;;;;;10079902;28;20086;-66
2024/02/25 08:31:30;;;;;;;0.75;0.40;;;7.90;99.90;;;;;;10100159;28;20511;-67
2024/02/25 08:36:21;;;;;;;0.25;0.20;;;7.80;99.90;;;;;;10099435;28;20527;-66
2024/02/25 08:41:12;;;;;;;1.17;0.50;;;7.80;99.90;;;;;;10098591;28;20202;-65
2024/02/25 08:46:02;;;;;;;0.55;0.50;;;7.90;99.90;;;;;;10099346;28;20418;-65
2024/02/25 08:50:53;;;;;;;1.65;0.52;;;7.90;99.90;;;;;;10101677;28;20036;-65
2024/02/25 08:55:44;;;;;;;0.90;0.50;;;7.80;99.90;;;;;;10099707;28;20449;-65
2024/02/25 09:00:34;;;;;;;0.70;0.70;;;7.90;99.90;;;;;;10080984;28;20048;-66
2024/02/25 09:05:26;;;;;;;0.50;0.43;;;7.90;99.90;;;;;;10099766;28;20470;-65
2024/02/25 09:10:19;;;;;;;1.25;0.77;;;8.00;99.90;;;;;;10098985;28;20390;-65
2024/02/25 09:15:10;;;;;;;2.22;0.80;;;8.10;99.90;;;;;;10098432;28;20052;-66
2024/02/25 09:20:00;;;;;;;0.90;0.50;;;8.20;99.90;;;;;;10097904;28;20029;-65
2024/02/25 09:24:51;;;;;;;0.60;0.40;;;8.30;99.90;;;;;;10097747;28;20101;-65
2024/02/25 09:29:42;;;;;;;1.35;1.25;;;8.30;99.90;;;;;;10098116;28;20028;-67
2024/02/25 09:34:32;;;;;;;1.85;0.55;;;8.40;99.90;;;;;;10097318;28;20509;-67
2024/02/25 09:39:23;;;;;;;1.30;0.88;;;8.50;99.90;;;;;;10097652;28;20462;-66
2024/02/25 09:44:25;;;;;;;2.03;1.13;;;8.60;99.90;;;;;;10103476;28;20051;-67
2024/02/25 09:49:18;;;;;;;1.70;0.70;;;8.70;99.90;;;;;;10099120;28;20434;-67
2024/02/25 09:54:08;;;;;;;0.52;0.40;;;8.70;99.90;;;;;;10079461;28;20039;-69
2024/02/25 09:58:59;;;;;;;0.80;0.57;;;8.70;99.90;;;;;;10100226;28;20379;-70
2024/02/25 10:03:50;;;;;;;1.20;0.85;;;8.80;99.90;;;;;;10095952;28;20692;-68
2024/02/25 10:08:51;;;;;;;1.05;0.95;;;8.90;99.90;;;;;;10095709;28;20060;-68
2024/02/25 10:13:43;;;;;;;0.77;0.47;;;9.00;99.90;;;;;;10093009;28;20029;-67
2024/02/25 10:18:35;;;;;;;1.23;0.73;;;9.20;99.90;;;;;;10096626;28;20065;-67
2024/02/25 10:23:27;;;;;;;1.67;0.40;;;9.20;99.90;;;;;;10098944;28;20083;-66
2024/02/25 10:28:18;;;;;;;1.95;0.70;;;9.30;99.90;;;;;;10103176;28;20040;-66
2024/02/25 10:33:15;;;;;;;1.13;0.38;;;9.30;99.90;;;;;;10105828;28;20032;-66
2024/02/25 10:38:09;;;;;;;1.75;0.60;;;9.40;99.90;;;;;;10103209;28;20387;-67
2024/02/25 10:43:00;;;;;;;0.75;0.55;;;9.50;99.90;;;;;;10088092;28;20036;-66
2024/02/25 10:47:55;;;;;;;0.98;0.63;;;9.60;99.90;;;;;;10095414;28;20117;-68
2024/02/25 10:52:46;;;;;;;1.33;0.60;;;9.60;99.90;;;;;;10104293;28;20033;-66
2024/02/25 10:57:40;;;;;;;0.98;0.60;;;9.60;99.90;;;;;;10111673;28;20075;-68
2024/02/25 11:02:33;;;;;;;2.97;1.10;;;9.60;99.90;;;;;;10108413;28;20119;-67
2024/02/25 11:07:24;;;;;;;1.08;0.50;;;9.60;99.90;;;;;;10091025;28;20036;-67
2024/02/25 11:12:27;;;;;;;1.33;0.50;;;9.70;99.90;;;;;;10108084;28;20044;-66
2024/02/25 11:17:24;;;;;;;0.38;0.20;;;9.70;99.90;;;;;;10108114;28;20028;-67
2024/02/25 11:22:42;;;;;;;0.40;0.40;;;9.70;99.90;;;;;;10097828;28;20098;-66
2024/02/25 11:27:58;;;;;;;0.60;0.32;;;9.60;99.90;;;;;;10111537;28;20025;-67
2024/02/25 11:32:49;;;;;;;;;;;9.70;99.90;;;;;;10102042;28;20098;-66
2024/02/25 11:37:42;;;;;;;0.47;0.47;;;9.80;99.90;;;;;;10105297;28;19916;-66
2024/02/25 11:42:33;;;;;;;1.50;0.60;;;9.80;99.90;;;;;;10099576;28;20040;-66
2024/02/25 11:47:23;;;;;;;0.95;0.50;;;9.90;99.90;;;;;;10108625;28;20040;-67
2024/02/25 11:52:14;;;;;;;0.52;0.50;;;9.90;99.90;;;;;;10111786;28;20737;-67
2024/02/25 11:57:05;;;;;;;0.40;0.30;;;10.00;99.90;;;;;;10125694;28;20021;-67
2024/02/25 12:01:55;;;;;;;1.27;0.38;;;10.10;99.90;;;;;;10135670;28;20399;-66
2024/02/25 12:06:47;;;;;;;0.32;0.20;;;10.20;99.90;;;;;;10101205;28;20119;-66
2024/02/25 12:11:38;;;;;;;0.43;0.20;;;10.20;99.90;;;;;;10100587;28;20510;-66
2024/02/25 12:16:30;;;;;;;1.52;0.52;;;10.30;99.90;;;;;;10103378;28;20106;-66
2024/02/25 12:21:23;;;;;;;0.95;0.30;;;10.40;99.90;;;;;;10082989;28;20577;-66
2024/02/25 12:26:13;;;;;;;0.50;0.13;;;10.50;99.90;;;;;;10098839;28;20113;-66
2024/02/25 12:31:09;;;;;;;0.52;0.35;;;10.70;99.90;;;;;;10099489;28;20104;-66
2024/02/25 12:36:01;;;;;;;0.55;0.25;;;10.70;99.90;;;;;;10085411;28;20167;-66
2024/02/25 12:40:54;;;;;;;1.13;0.60;;;10.80;99.90;;;;;;10081516;28;20488;-67
2024/02/25 12:45:45;;;;;;;1.20;0.55;;;10.90;99.90;;;;;;10099671;28;20056;-67
2024/02/25 12:50:36;;;;;;;0.73;0.35;;;11.00;99.90;;;;;;10098701;28;20078;-67
2024/02/25 12:55:26;;;;;;;0.80;0.30;;;11.10;99.90;;;;;;10099429;28;20754;-67
2024/02/25 13:00:17;;;;;;;0.80;0.20;;;11.40;99.90;;;;;;10098048;28;20032;-67
2024/02/25 13:05:08;;;;;;;0.32;0.30;;;11.60;99.90;;;;;;10099238;28;20071;-67
2024/02/25 13:10:00;;;;;;;0.70;0.50;;;11.60;99.90;;;;;;10103466;28;20021;-67
2024/02/25 13:14:51;;;;;;;0.55;0.40;;;11.70;99.90;;;;;;10098016;28;20031;-66
2024/02/25 13:19:41;;;;;;;0.45;0.10;;;11.70;99.90;;;;;;10098296;28;20035;-66
2024/02/25 13:24:32;;;;;;;0.22;0.20;;;11.70;99.90;;;;;;10119063;28;20419;-66
2024/02/25 13:29:23;;;;;;;1.73;0.70;;;11.80;99.90;;;;;;10095829;28;20621;-67
2024/02/25 13:34:13;;;;;;;0.75;0.47;;;11.90;99.90;;;;;;10100501;28;20071;-66
2024/02/25 13:39:04;;;;;;;1.17;0.60;;;12.10;99.90;;;;;;10105524;28;20079;-65
2024/02/25 13:43:55;;;;;;;1.38;0.47;;;12.10;99.90;;;;;;10105931;28;20423;-65
2024/02/25 13:48:48;;;;;;;0.40;0.30;;;12.20;99.90;;;;;;10093378;28;20037;-65
2024/02/25 13:53:39;;;;;;;1.05;0.40;;;12.30;99.90;;;;;;10097205;28;20025;-66
2024/02/25 13:58:30;;;;;;;0.43;0.30;;;12.50;99.90;;;;;;10100601;28;20731;-66
2024/02/25 14:03:20;;;;;;;0.60;0.30;;;12.80;99.90;;;;;;10101081;28;20045;-71
2024/02/25 14:08:12;;;;;;;0.47;0.35;;;13.00;99.90;;;;;;10081613;28;20508;-71
2024/02/25 14:13:02;;;;;;;0.47;0.30;;;12.90;99.90;;;;;;10087951;28;20494;-65
2024/02/25 14:17:56;;;;;;;0.90;0.20;;;12.70;99.90;;;;;;10083491;28;20033;-65
2024/02/25 14:22:46;;;;;;;0.40;0.30;;;12.70;99.90;;;;;;10095935;28;20123;-66
2024/02/25 14:27:37;;;;;;;0.50;0.50;;;12.60;99.90;;;;;;10094180;28;20033;-65
2024/02/25 14:32:28;;;;;;;1.48;0.50;;;12.60;99.90;;;;;;10095542;28;20041;-65
2024/02/25 14:37:18;;;;;;;0.50;0.43;;;12.50;99.90;;;;;;10094055;28;20048;-67
2024/02/25 14:42:09;;;;;;;1.20;0.45;;;12.50;99.90;;;;;;10079583;28;20036;-68
2024/02/25 14:47:00;;;;;;;0.90;0.50;;;12.50;99.90;;;;;;10101836;28;20064;-66
2024/02/25 14:51:51;;;;;;;1.05;0.60;;;12.40;99.90;;;;;;10098682;28;20032;-66
2024/02/25 14:56:42;;;;;;;0.50;0.40;;;12.40;99.90;;;;;;10103903;28;20024;-65
2024/02/25 15:01:33;;;;;;;0.68;0.40;;;12.50;99.90;;;;;;10113131;28;20119;-65
2024/02/25 15:06:25;;;;;;;0.93;0.28;;;12.50;99.90;;;;;;10094685;28;20107;-65
2024/02/25 15:11:16;;;;;;;0.43;0.38;;;12.50;99.90;;;;;;10077117;28;20087;-66
2024/02/25 15:16:06;;;;;;;0.35;0.30;;;12.60;99.90;;;;;;10096712;28;20518;-66
2024/02/25 15:20:58;;;;;;;0.30;0.30;;;12.60;99.90;;;;;;10095018;28;20514;-65
2024/02/25 15:25:48;;;;;;;0.70;0.68;;;12.60;99.90;;;;;;10097308;28;20140;-66
2024/02/25 15:30:42;;;;;;;1.13;0.60;;;12.50;99.90;;;;;;10099660;28;20111;-66
2024/02/25 15:35:34;;;;;;;1.67;0.65;;;12.50;99.90;;;;;;10096568;28;20048;-66
2024/02/25 15:40:25;;;;;;;0.90;0.73;;;12.50;99.90;;;;;;10102280;28;20078;-66
2024/02/25 15:45:16;;;;;;;1.48;0.50;;;12.50;99.90;;;;;;10106805;28;20208;-66
2024/02/25 15:50:07;;;;;;;1.00;0.57;;;12.40;99.90;;;;;;10110290;28;20028;-66
2024/02/25 15:54:57;;;;;;;0.88;0.32;;;12.40;99.90;;;;;;10103082;28;20079;-66
2024/02/25 15:59:50;;;;;;;1.33;0.82;;;12.30;99.90;;;;;;10112138;28;20501;-66
2024/02/25 16:04:40;;;;;;;0.95;0.52;;;12.30;99.90;;;;;;10106172;28;20534;-64
2024/02/25 16:09:34;;;;;;;0.60;0.30;;;12.30;99.90;;;;;;10114541;28;20102;-64
2024/02/25 16:14:24;;;;;;;3.50;0.57;;;12.30;99.90;;;;;;10091617;28;20435;-65
2024/02/25 16:19:15;;;;;;;0.80;0.60;;;12.30;99.90;;;;;;10104615;28;20115;-68
2024/02/25 16:24:06;;;;;;;0.55;0.35;;;12.30;99.90;;;;;;10087993;28;20040;-69
2024/02/25 16:28:57;;;;;;;1.02;0.50;;;12.20;99.90;;;;;;10107554;28;20520;-68
2024/02/25 16:33:49;;;;;;;1.02;0.65;;;12.20;99.90;;;;;;10103759;28;20071;-64
2024/02/25 16:38:40;;;;;;;1.88;0.63;;;12.20;99.90;;;;;;10103483;28;20083;-65
2024/02/25 16:43:30;;;;;;;1.52;0.50;;;12.20;99.90;;;;;;10099932;28;20080;-66
2024/02/25 16:48:21;;;;;;;2.78;0.73;;;12.20;99.90;;;;;;10099466;28;20039;-66
2024/02/25 16:53:12;;;;;;;0.98;0.65;;;12.10;99.90;;;;;;10107818;28;20025;-66
2024/02/25 16:58:02;;;;;;;0.90;0.50;;;12.10;99.90;;;;;;10101713;28;20052;-65
2024/02/25 17:02:55;;;;;;;2.38;0.77;;;12.10;99.90;;;;;;10099110;28;20470;-66
2024/02/25 17:07:46;;;;;;;0.55;0.55;;;12.20;99.90;;;;;;10101187;28;20055;-66
2024/02/25 17:12:36;;;;;;;1.55;0.80;;;12.10;99.90;;;;;;10088482;28;20036;-66
2024/02/25 17:17:27;;;;;;;1.67;0.82;;;12.10;99.90;;;;;;10080272;28;20450;-66
2024/02/25 17:22:20;;;;;;;2.50;1.00;;;12.10;99.90;;;;;;10083853;28;20524;-64
2024/02/25 17:27:12;;;;;;;3.80;0.85;;;12.10;99.90;;;;;;10097188;28;20122;-64
2024/02/25 17:32:02;;;;;;;3.65;1.30;;;12.10;99.90;;;;;;10096868;28;20040;-66
2024/02/25 17:36:53;;;;;;;2.03;0.75;;;12.10;99.90;;;;;;10096516;28;20021;-67
2024/02/25 17:41:44;;;;;;;3.55;1.27;;;12.10;99.90;;;;;;10099259;28;20028;-68
2024/02/25 17:46:34;;;;;;;3.50;0.90;;;12.10;99.90;;;;;;10078531;28;20108;-66
2024/02/25 17:51:25;;;;;;;5.15;1.42;;;12.10;99.90;;;;;;10100512;28;20025;-68
2024/02/25 17:56:16;;;;;;;3.72;1.13;;;12.10;99.90;;;;;;10102180;28;20033;-68
2024/02/25 18:01:07;;;;;;;2.00;1.10;;;12.10;99.90;;;;;;10112292;28;20052;-66
2024/02/25 18:05:57;;;;;;;2.20;1.38;;;12.00;99.90;;;;;;10096262;28;20028;-67
2024/02/25 18:10:48;;;;;;;5.22;1.45;;;12.00;99.90;;;;;;10096416;28;20535;-66
2024/02/25 18:15:39;;;;;;;3.33;2.10;;;12.00;99.90;;;;;;10098696;28;20398;-63
2024/02/25 18:20:30;;;;;;;3.78;2.20;;;12.00;99.90;;;;;;10098890;28;20452;-63
2024/02/25 18:25:22;;;;;;;4.13;1.95;;;12.00;99.90;;;;;;10095665;28;20114;-65
2024/02/25 18:30:12;;;;;;;5.50;1.80;;;12.00;99.90;;;;;;10095892;28;20021;-66
2024/02/25 18:35:03;;;;;;;4.40;1.45;;;12.00;99.90;;;;;;10095346;28;20525;-65
2024/02/25 18:39:54;;;;;;;4.55;1.60;;;12.00;99.90;;;;;;10072677;28;20077;-64
2024/02/25 18:44:45;;;;;;;5.05;1.80;;;12.00;99.90;;;;;;10094940;28;20044;-65
2024/02/25 18:49:38;;;;;;;3.63;2.05;;;12.00;99.90;;;;;;10087887;28;20033;-63
2024/02/25 18:54:29;;;;;;;2.28;1.42;;;12.00;99.90;;;;;;10107116;28;20166;-64
2024/02/25 18:59:19;;;;;;;1.65;1.10;;;12.00;99.90;;;;;;10100701;28;20557;-64
2024/02/25 19:04:10;;;;;;;3.50;1.25;;;12.00;99.90;;;;;;10099685;28;20580;-64
2024/02/25 19:09:01;;;;;;;3.83;1.40;;;11.90;99.90;;;;;;10095534;28;20020;-65
2024/02/25 19:13:51;;;;;;;2.50;2.13;;;12.00;99.90;;;;;;10101306;28;20112;-64
2024/02/25 19:18:42;;;;;;;5.93;2.13;;;12.00;99.90;;;;;;10101370;28;20024;-63
2024/02/25 19:23:33;;;;;;;2.50;1.52;;;12.00;99.90;;;;;;10105219;28;20047;-66
2024/02/25 19:28:23;;;;;;;4.25;2.05;;;12.00;99.90;;;;;;10101790;28;20029;-66
2024/02/25 19:33:15;;;;;;;3.40;2.25;;;12.00;99.90;;;;;;10101872;28;20059;-64
2024/02/25 19:38:05;;;;;;;4.55;1.45;;;12.00;99.90;;;;;;10076364;28;20529;-64
2024/02/25 19:42:57;;;;;;;2.17;1.25;;;12.00;99.90;;;;;;10104837;28;20515;-65
2024/02/25 19:47:48;;;;;;;2.78;1.33;;;12.00;99.90;;;;;;10101726;28;20112;-66
2024/02/25 19:52:39;;;;;;;1.98;1.20;;;12.00;99.90;;;;;;10097548;28;20025;-67
2024/02/25 19:57:30;;;;;;;1.25;0.90;;;12.00;99.90;;;;;;10083549;28;20029;-67
2024/02/25 20:02:20;;;;;;;3.75;1.20;;;12.00;99.90;;;;;;10104872;28;20455;-63
2024/02/25 20:07:13;;;;;;;1.58;0.65;;;11.90;99.90;;;;;;10108709;28;20503;-64
2024/02/25 20:12:06;;;;;;;0.88;0.73;;;12.00;99.90;;;;;;10101291;28;20372;-65
2024/02/25 20:16:57;;;;;;;1.35;0.90;;;12.00;99.90;;;;;;10099790;28;20111;-64
2024/02/25 20:21:47;;;;;;;1.52;0.70;;;12.00;99.90;;;;;;10112101;28;20144;-63
2024/02/25 20:26:38;;;;;;;1.15;0.82;;;12.00;99.90;;;;;;10082081;28;20051;-65
2024/02/25 20:31:29;;;;;;;3.03;0.73;;;12.00;99.90;;;;;;10102912;28;20212;-70
2024/02/25 20:36:20;;;;;;;1.77;1.08;;;12.00;99.90;;;;;;10102194;28;20017;-65
2024/02/25 20:41:12;;;;;;;2.13;1.00;;;11.90;99.90;;;;;;10108771;28;20394;-64
2024/02/25 20:46:03;;;;;;;3.95;1.73;;;11.90;99.90;;;;;;10098377;28;20505;-64
2024/02/25 20:50:53;;;;;;;3.13;1.08;;;12.00;99.90;;;;;;10099801;28;20100;-64
2024/02/25 20:55:44;;;;;;;2.40;1.30;;;12.00;99.90;;;;;;10098711;28;20426;-64
2024/02/25 21:00:35;;;;;;;2.42;1.27;;;11.90;99.90;;;;;;10081369;28;20025;-64
2024/02/25 21:05:25;;;;;;;5.10;1.75;;;11.90;99.90;;;;;;10082096;28;20047;-65
2024/02/25 21:10:16;;;;;;;2.80;1.77;;;12.00;99.90;;;;;;10099267;28;20035;-64
2024/02/25 21:15:10;;;;;;;1.77;1.30;;;11.90;99.90;;;;;;10098018;28;20064;-65
2024/02/25 21:20:01;;;;;;;3.08;1.15;;;11.90;99.90;;;;;;10098593;28;20028;-64
2024/02/25 21:24:51;;;;;;;2.00;0.90;;;11.90;99.90;;;;;;10080069;28;20037;-65
2024/02/25 21:29:45;;;;;;;1.80;1.25;;;11.90;99.90;;;;;;10098774;28;20158;-64
2024/02/25 21:34:35;;;;;;;2.88;1.27;;;11.90;99.90;;;;;;10105942;28;20544;-65
2024/02/25 21:39:26;;;;;;;2.67;1.27;;;11.90;99.90;;;;;;10087233;28;20037;-64
2024/02/25 21:44:17;;;;;;;1.48;1.30;;;11.90;99.90;;;;;;10105632;28;20040;-65
2024/02/25 21:49:08;;;;;;;2.55;1.05;;;11.90;99.90;;;;;;10098091;28;20029;-65
2024/02/25 21:53:58;;;;;;;3.35;1.58;;;11.90;99.90;;;;;;10100671;28;20128;-64
2024/02/25 21:58:50;;;;;;;3.63;1.15;;;11.90;99.90;;;;;;10097337;28;20035;-64
2024/02/25 22:03:40;;;;;;;1.65;1.00;;;11.90;99.90;;;;;;10103800;28;20486;-64
2024/02/25 22:08:34;;;;;;;4.68;1.90;;;11.90;99.90;;;;;;10096882;28;20032;-64
2024/02/25 22:13:24;;;;;;;2.80;1.23;;;11.90;99.90;;;;;;10097058;28;20032;-64
2024/02/25 22:18:15;;;;;;;3.42;1.40;;;11.80;99.90;;;;;;10100807;28;20115;-65
2024/02/25 22:23:06;;;;;;;2.17;1.45;;;11.80;99.90;;;;;;10096347;28;20095;-65
2024/02/25 22:27:56;;;;;;;2.28;1.10;;;11.80;99.90;;;;;;10096039;28;20040;-66
2024/02/25 22:32:47;;;;;;;2.53;1.60;;;11.80;99.90;;;;;;10096108;28;20392;-64
2024/02/25 22:37:38;;;;;;;3.55;1.77;;;11.80;99.90;;;;;;10095941;28;20071;-64
2024/02/25 22:42:29;;;;;;;2.92;1.30;;;11.70;99.90;;;;;;10077663;28;20044;-69
2024/02/25 22:47:19;;;;;;;3.13;1.52;;;11.80;99.90;;;;;;10094097;28;20029;-66
2024/02/25 22:52:10;;;;;;;1.65;0.85;;;11.70;99.90;;;;;;10094494;28;20057;-67
2024/02/25 22:57:01;;;;;;;2.05;1.10;;;11.70;99.90;;;;;;10095269;28;20055;-63
2024/02/25 23:01:53;;;;;;;1.90;1.10;;;11.80;99.90;;;;;;10095579;28;20045;-68
2024/02/25 23:06:43;;;;;;;1.10;0.82;;;11.80;99.90;;;;;;10095822;28;20021;-69
2024/02/25 23:11:34;;;;;;;1.63;0.88;;;11.70;99.90;;;;;;10095236;28;20522;-64
2024/02/25 23:16:25;;;;;;;1.63;0.82;;;11.70;99.90;;;;;;10094709;28;20029;-64
2024/02/25 23:21:16;;;;;;;2.90;1.25;;;11.70;99.90;;;;;;10094890;28;20045;-65
2024/02/25 23:26:07;;;;;;;1.55;0.95;;;11.70;99.90;;;;;;10102393;28;20040;-65
2024/02/25 23:30:58;;;;;;;2.28;1.45;;;11.60;99.90;;;;;;10094693;28;20091;-65
2024/02/25 23:35:48;;;;;;;1.85;1.05;;;11.60;99.90;;;;;;10094113;28;20029;-63
2024/02/25 23:40:39;;;;;;;2.65;1.15;;;11.60;99.90;;;;;;10076582;28;20037;-64
2024/02/25 23:45:30;;;;;;;1.77;1.10;;;11.60;99.90;;;;;;10095554;28;20098;-64
2024/02/25 23:50:21;;;;;;;1.75;1.13;;;11.60;99.90;;;;;;10094382;28;20025;-64
2024/02/25 23:55:11;;;;;;;1.80;1.00;;;11.40;99.90;;;;;;10098561;28;20029;-64
